Time;durP1;ratioP1;P1;durP2;ratioP2;P2;SDS_P1;SDS_P2;PMS_P1;PMS_P2;Temp;Humidity;BMP_temperature;BMP_pressure;BME280_temperature;BME280_humidity;BME280_pressure;Samples;Min_cycle;Max_cycle;Signal;HPM_P1;HPM_P2
2023/12/30 00:00:11;;;;;;;6.70;0.55;;;9.50;99.90;;;;;;4997767;23;20621;-94
2023/12/30 00:02:11;;;;;;;1.35;0.40;;;9.50;99.90;;;;;;4997879;23;20168;-95
2023/12/30 00:04:13;;;;;;;10.70;0.93;;;9.50;99.90;;;;;;5021459;23;20151;-94
2023/12/30 00:06:15;;;;;;;2.20;0.65;;;9.50;99.90;;;;;;4997293;23;20179;-93
2023/12/30 00:08:16;;;;;;;5.47;1.17;;;9.60;99.90;;;;;;5021471;23;20182;-93
2023/12/30 00:10:17;;;;;;;3.35;1.10;;;9.60;99.90;;;;;;4997969;23;20614;-94
2023/12/30 00:12:18;;;;;;;2.22;0.55;;;9.50;99.90;;;;;;5021681;23;20159;-94
2023/12/30 00:14:19;;;;;;;3.10;0.95;;;9.50;99.90;;;;;;4997331;23;20144;-92
2023/12/30 00:16:19;;;;;;;4.90;0.60;;;9.40;99.90;;;;;;5021017;23;20278;-95
2023/12/30 00:18:20;;;;;;;5.45;0.70;;;9.30;99.90;;;;;;4997580;23;20589;-95
2023/12/30 00:20:22;;;;;;;4.05;0.50;;;9.30;99.90;;;;;;4997631;23;20159;-93
2023/12/30 00:22:23;;;;;;;4.97;1.63;;;9.30;99.90;;;;;;4997528;23;20152;-93
2023/12/30 00:24:24;;;;;;;5.28;0.90;;;9.40;99.90;;;;;;4997096;23;20163;-94
2023/12/30 00:26:26;;;;;;;10.73;1.20;;;9.30;99.90;;;;;;4997313;23;20603;-94
2023/12/30 00:28:43;;;;;;;4.30;0.30;;;9.30;99.90;;;;;;5000807;23;20503;-94
2023/12/30 00:30:45;;;;;;;2.97;0.55;;;9.10;99.90;;;;;;4997437;23;20586;-94
2023/12/30 00:32:46;;;;;;;8.30;1.08;;;9.10;99.90;;;;;;4997309;23;20166;-93
2023/12/30 00:34:47;;;;;;;6.70;1.33;;;9.00;99.90;;;;;;4998628;23;20156;-93
2023/12/30 00:36:48;;;;;;;2.53;0.52;;;8.90;99.90;;;;;;4998833;23;20259;-93
2023/12/30 00:38:49;;;;;;;2.28;0.15;;;9.00;99.90;;;;;;4998858;23;20173;-93
2023/12/30 00:40:50;;;;;;;2.88;0.20;;;9.00;99.90;;;;;;4998576;23;20251;-94
2023/12/30 00:42:51;;;;;;;1.52;0.40;;;8.90;99.90;;;;;;4998655;23;20155;-93
2023/12/30 00:44:52;;;;;;;7.22;0.82;;;9.00;99.90;;;;;;4999331;23;20159;-93
2023/12/30 00:46:53;;;;;;;5.40;0.70;;;9.00;99.90;;;;;;5022346;23;20175;-93
2023/12/30 00:48:54;;;;;;;10.38;1.10;;;9.00;99.90;;;;;;4998772;23;20160;-94
2023/12/30 00:50:55;;;;;;;1.33;0.20;;;9.00;99.90;;;;;;4999040;23;20156;-93
2023/12/30 00:52:56;;;;;;;9.38;0.35;;;9.00;99.90;;;;;;4998679;23;20607;-92
2023/12/30 00:54:57;;;;;;;1.05;0.35;;;9.10;99.90;;;;;;4998732;23;20147;-93
2023/12/30 00:56:58;;;;;;;4.88;0.63;;;9.00;99.90;;;;;;5022338;23;20325;-93
2023/12/30 00:58:58;;;;;;;5.13;0.25;;;9.10;99.90;;;;;;5022219;23;20147;-95
2023/12/30 01:00:59;;;;;;;5.60;0.75;;;9.00;99.90;;;;;;5021811;23;20482;-93
2023/12/30 01:03:00;;;;;;;7.70;0.75;;;9.00;99.90;;;;;;5021994;23;20151;-92
2023/12/30 01:05:01;;;;;;;1.90;0.30;;;9.00;99.90;;;;;;5022471;23;20174;-93
2023/12/30 01:07:02;;;;;;;5.80;1.15;;;9.00;99.90;;;;;;5022077;23;20202;-93
2023/12/30 01:09:03;;;;;;;3.80;0.38;;;9.00;99.90;;;;;;5022371;23;20159;-94
2023/12/30 01:11:04;;;;;;;0.75;0.20;;;9.00;99.90;;;;;;4998529;23;20238;-93
2023/12/30 01:13:06;;;;;;;4.85;0.52;;;9.00;99.90;;;;;;4998931;23;20159;-96
2023/12/30 01:15:07;;;;;;;5.57;0.68;;;9.10;99.90;;;;;;5022284;23;20155;-93
2023/12/30 01:17:08;;;;;;;6.05;0.80;;;9.00;99.90;;;;;;5021820;23;20205;-93
2023/12/30 01:19:09;;;;;;;13.27;1.33;;;9.00;99.90;;;;;;5022162;23;20263;-94
2023/12/30 01:21:10;;;;;;;2.35;0.52;;;9.00;99.90;;;;;;4998710;23;20191;-93
2023/12/30 01:23:11;;;;;;;2.58;0.80;;;9.00;99.90;;;;;;5022016;23;20187;-94
2023/12/30 01:25:11;;;;;;;5.57;1.73;;;9.00;99.90;;;;;;5021917;23;20502;-95
2023/12/30 01:27:12;;;;;;;4.97;0.65;;;8.90;99.90;;;;;;4998128;23;20183;-92
2023/12/30 01:29:13;;;;;;;3.97;0.90;;;8.80;99.90;;;;;;4998154;23;20484;-93
2023/12/30 01:31:17;;;;;;;5.90;1.15;;;8.80;99.90;;;;;;4998325;23;20163;-94
2023/12/30 01:33:18;;;;;;;8.95;1.70;;;8.80;99.90;;;;;;5021818;23;20175;-93
2023/12/30 01:35:18;;;;;;;3.28;0.60;;;8.70;99.90;;;;;;4998646;23;20295;-95
2023/12/30 01:37:19;;;;;;;1.33;0.63;;;8.70;99.90;;;;;;5022099;23;20230;-95
2023/12/30 01:39:20;;;;;;;6.15;1.40;;;8.80;99.90;;;;;;5022538;23;20479;-93
2023/12/30 01:41:21;;;;;;;0.90;0.55;;;8.90;99.90;;;;;;5021982;23;20158;-95
2023/12/30 01:43:27;;;;;;;3.60;0.82;;;8.80;99.90;;;;;;4998625;23;20245;-93
2023/12/30 01:45:28;;;;;;;2.30;0.40;;;8.80;99.90;;;;;;5022057;23;20198;-94
2023/12/30 01:47:29;;;;;;;9.32;1.30;;;8.90;99.90;;;;;;5021856;23;20207;-94
2023/12/30 01:49:30;;;;;;;8.35;0.93;;;8.90;99.90;;;;;;5022090;23;20187;-93
2023/12/30 01:51:31;;;;;;;5.85;0.65;;;8.90;99.90;;;;;;5021864;23;20159;-94
2023/12/30 01:53:34;;;;;;;6.85;0.70;;;9.00;99.90;;;;;;5022196;23;20663;-96
2023/12/30 01:55:35;;;;;;;4.57;0.70;;;9.00;99.90;;;;;;5022083;23;20570;-95
2023/12/30 01:57:38;;;;;;;5.63;0.75;;;9.10;99.90;;;;;;5022028;23;20199;-94
2023/12/30 01:59:40;;;;;;;3.35;1.10;;;9.00;99.90;;;;;;5022010;23;20194;-93
2023/12/30 02:01:41;;;;;;;4.70;1.25;;;9.00;99.90;;;;;;5021708;23;20163;-94
2023/12/30 02:03:43;;;;;;;5.65;0.90;;;9.00;99.90;;;;;;5022001;23;20203;-95
2023/12/30 02:05:47;;;;;;;8.15;1.20;;;9.10;99.90;;;;;;5021844;23;20171;-95
2023/12/30 02:07:48;;;;;;;1.88;0.80;;;9.00;99.90;;;;;;5021654;23;20535;-94
2023/12/30 02:09:49;;;;;;;1.50;0.47;;;9.00;99.90;;;;;;5022106;23;20242;-94
2023/12/30 02:11:50;;;;;;;11.88;1.20;;;9.00;99.90;;;;;;4997985;23;20159;-95
2023/12/30 02:13:51;;;;;;;6.72;0.57;;;9.00;99.90;;;;;;5045530;23;20159;-95
2023/12/30 02:15:51;;;;;;;7.03;1.20;;;9.10;99.90;;;;;;4997887;23;20176;-94
2023/12/30 02:17:56;;;;;;;21.25;1.75;;;9.00;99.90;;;;;;5021614;23;20597;-93
2023/12/30 02:19:57;;;;;;;2.53;0.63;;;9.00;99.90;;;;;;5021984;23;20175;-95
2023/12/30 02:21:58;;;;;;;6.90;0.93;;;8.90;99.90;;;;;;5021542;23;20162;-94
2023/12/30 02:24:00;;;;;;;6.32;0.73;;;8.90;99.90;;;;;;4998273;23;20660;-94
2023/12/30 02:26:01;;;;;;;4.72;1.25;;;8.80;99.90;;;;;;5021956;23;20183;-93
2023/12/30 02:28:02;;;;;;;3.97;0.45;;;8.90;99.90;;;;;;5021600;23;20190;-95
2023/12/30 02:30:05;;;;;;;5.13;1.63;;;8.90;99.90;;;;;;5022021;23;20151;-95
2023/12/30 02:32:06;;;;;;;3.40;0.55;;;8.90;99.90;;;;;;5021894;23;20147;-93
2023/12/30 02:34:07;;;;;;;6.10;0.82;;;8.90;99.90;;;;;;5022031;23;20238;-93
2023/12/30 02:36:08;;;;;;;1.98;0.38;;;8.80;99.90;;;;;;4998341;23;20190;-94
2023/12/30 02:38:09;;;;;;;8.00;0.50;;;8.90;99.90;;;;;;5021620;23;20166;-96
2023/12/30 02:40:10;;;;;;;5.30;0.85;;;9.00;99.90;;;;;;4997740;23;20183;-93
2023/12/30 02:42:11;;;;;;;7.15;0.90;;;9.10;99.90;;;;;;5021614;23;20238;-93
2023/12/30 02:44:18;;;;;;;8.80;1.85;;;9.10;99.90;;;;;;5021631;23;20147;-94
2023/12/30 02:46:19;;;;;;;1.48;0.30;;;9.10;99.90;;;;;;5021345;23;20290;-95
2023/12/30 02:48:20;;;;;;;2.00;0.63;;;9.20;99.90;;;;;;5021468;23;20574;-93
2023/12/30 02:50:22;;;;;;;11.90;1.30;;;9.20;99.90;;;;;;5021655;23;20179;-94
2023/12/30 02:52:23;;;;;;;3.88;0.60;;;9.20;99.90;;;;;;5021688;23;20186;-94
2023/12/30 02:54:24;;;;;;;5.43;0.88;;;9.10;99.90;;;;;;5021724;23;20174;-94
2023/12/30 02:56:26;;;;;;;9.93;0.80;;;9.00;99.90;;;;;;5021552;23;20225;-94
2023/12/30 02:58:27;;;;;;;4.95;0.73;;;9.00;99.90;;;;;;5021575;23;20159;-95
2023/12/30 03:00:27;;;;;;;9.68;1.40;;;9.00;99.90;;;;;;5022055;23;20241;-93
2023/12/30 03:02:28;;;;;;;2.72;0.60;;;9.00;99.90;;;;;;5021323;23;20510;-93
2023/12/30 03:04:29;;;;;;;6.30;0.80;;;9.30;99.90;;;;;;5021869;23;20155;-94
2023/12/30 03:06:30;;;;;;;7.57;0.40;;;9.20;99.90;;;;;;5021743;23;20175;-96
2023/12/30 03:08:31;;;;;;;8.70;1.10;;;9.20;99.90;;;;;;4997920;23;20152;-94
2023/12/30 03:10:32;;;;;;;5.05;0.77;;;9.10;99.90;;;;;;4997867;23;20170;-94
2023/12/30 03:12:33;;;;;;;6.50;0.68;;;9.10;99.90;;;;;;4998088;23;20156;-94
2023/12/30 03:14:33;;;;;;;4.95;1.30;;;9.20;99.90;;;;;;4997713;23;20158;-95
2023/12/30 03:16:35;;;;;;;5.80;0.60;;;9.20;99.90;;;;;;4997666;23;20191;-94
2023/12/30 03:18:37;;;;;;;22.25;0.73;;;9.20;99.90;;;;;;5021518;23;20599;-95
2023/12/30 03:20:38;;;;;;;0.75;0.40;;;9.40;99.90;;;;;;5021194;23;20162;-95
2023/12/30 03:22:39;;;;;;;6.95;0.77;;;9.30;99.90;;;;;;5021450;23;20590;-95
2023/12/30 03:24:40;;;;;;;2.90;0.68;;;9.30;99.90;;;;;;4997520;23;20158;-93
2023/12/30 03:26:41;;;;;;;5.32;0.40;;;9.20;99.90;;;;;;5021484;23;20208;-94
2023/12/30 03:28:43;;;;;;;4.70;1.10;;;9.10;99.90;;;;;;4997962;23;20159;-94
2023/12/30 03:30:45;;;;;;;5.28;0.82;;;9.20;99.90;;;;;;5021557;23;20274;-95
2023/12/30 03:32:47;;;;;;;4.47;0.63;;;9.20;99.90;;;;;;5021431;23;20582;-93
2023/12/30 03:34:48;;;;;;;4.57;0.65;;;9.30;99.90;;;;;;5021298;23;20199;-95
2023/12/30 03:36:49;;;;;;;7.18;0.65;;;9.30;99.90;;;;;;5021259;23;20195;-93
2023/12/30 03:38:52;;;;;;;4.72;0.85;;;9.10;99.90;;;;;;4997816;23;20156;-95
2023/12/30 03:40:53;;;;;;;5.35;1.15;;;9.10;99.90;;;;;;4997659;23;20151;-95
2023/12/30 03:42:54;;;;;;;6.97;0.50;;;9.10;99.90;;;;;;4998315;23;20238;-93
2023/12/30 03:44:56;;;;;;;9.27;0.68;;;9.20;99.90;;;;;;4998113;23;20159;-94
2023/12/30 03:46:57;;;;;;;6.82;1.00;;;9.20;99.90;;;;;;4998257;23;20183;-95
2023/12/30 03:48:58;;;;;;;4.07;1.48;;;9.40;99.90;;;;;;4998539;23;20192;-94
2023/12/30 03:50:59;;;;;;;13.93;0.70;;;9.50;99.90;;;;;;5022122;23;20539;-94
2023/12/30 03:53:02;;;;;;;3.00;0.98;;;9.50;99.90;;;;;;4998469;23;20159;-94
2023/12/30 03:55:03;;;;;;;2.92;0.93;;;9.60;99.90;;;;;;4998328;23;20159;-95
2023/12/30 03:57:04;;;;;;;6.22;0.65;;;9.50;99.90;;;;;;4998292;23;20191;-94
2023/12/30 03:59:05;;;;;;;5.80;0.32;;;9.30;99.90;;;;;;4997959;23;20162;-94
2023/12/30 04:01:06;;;;;;;4.40;1.23;;;9.10;99.90;;;;;;5021170;23;20162;-95
2023/12/30 04:03:07;;;;;;;7.80;0.30;;;9.00;99.90;;;;;;5021656;23;20151;-94
2023/12/30 04:05:07;;;;;;;7.78;1.10;;;9.00;99.90;;;;;;4998488;23;20160;-95
2023/12/30 04:07:08;;;;;;;0.93;0.40;;;9.00;99.90;;;;;;5021011;23;20175;-93
2023/12/30 04:09:09;;;;;;;2.75;0.60;;;8.90;99.90;;;;;;4998709;23;20177;-94
2023/12/30 04:11:10;;;;;;;7.00;1.48;;;8.80;99.90;;;;;;5023735;23;20165;-93
2023/12/30 04:13:11;;;;;;;3.28;1.10;;;8.80;99.90;;;;;;5023282;23;20218;-93
2023/12/30 04:15:12;;;;;;;7.35;0.80;;;8.70;99.90;;;;;;5023267;23;20151;-95
2023/12/30 04:17:13;;;;;;;3.35;0.50;;;8.80;99.90;;;;;;4999289;23;20239;-94
2023/12/30 04:19:15;;;;;;;3.10;0.93;;;8.70;99.90;;;;;;5023242;23;20190;-93
2023/12/30 04:21:16;;;;;;;2.47;0.90;;;8.60;99.90;;;;;;5023221;23;20150;-94
2023/12/30 04:23:17;;;;;;;2.70;0.65;;;8.60;99.90;;;;;;4998884;23;20155;-95
2023/12/30 04:25:18;;;;;;;5.72;0.52;;;8.50;99.90;;;;;;4998799;23;20208;-93
2023/12/30 04:27:19;;;;;;;8.18;0.90;;;8.40;99.90;;;;;;4998903;23;20210;-95
2023/12/30 04:29:20;;;;;;;3.75;1.23;;;8.40;99.90;;;;;;5023301;23;20159;-95
2023/12/30 04:31:21;;;;;;;2.92;0.63;;;8.40;99.90;;;;;;5022800;23;20155;-94
2023/12/30 04:33:22;;;;;;;1.83;0.30;;;8.40;99.90;;;;;;5021961;23;20578;-94
2023/12/30 04:35:23;;;;;;;4.50;0.40;;;8.50;99.90;;;;;;4997877;23;20261;-93
2023/12/30 04:37:24;;;;;;;2.22;0.43;;;8.40;99.90;;;;;;5021022;23;20217;-95
2023/12/30 04:39:25;;;;;;;2.55;0.65;;;8.40;99.90;;;;;;4997592;23;20156;-93
2023/12/30 04:41:30;;;;;;;4.53;0.73;;;8.40;99.90;;;;;;5022210;23;20155;-95
2023/12/30 04:43:31;;;;;;;4.70;0.60;;;8.40;99.90;;;;;;5021081;23;20182;-93
2023/12/30 04:45:32;;;;;;;1.70;0.63;;;8.40;99.90;;;;;;5021405;23;20661;-95
2023/12/30 04:47:33;;;;;;;9.40;1.65;;;8.40;99.90;;;;;;5021211;23;20177;-95
2023/12/30 04:49:34;;;;;;;0.77;0.30;;;8.30;99.90;;;;;;5021749;23;20155;-93
2023/12/30 04:51:36;;;;;;;2.55;0.88;;;8.30;99.90;;;;;;5021277;23;20237;-95
2023/12/30 04:53:37;;;;;;;7.88;1.35;;;8.40;99.90;;;;;;5021723;23;20154;-94
2023/12/30 04:55:38;;;;;;;1.70;0.55;;;8.40;99.90;;;;;;5020954;23;20158;-95
2023/12/30 04:57:41;;;;;;;3.30;0.40;;;8.40;99.90;;;;;;5020933;23;20665;-96
2023/12/30 04:59:42;;;;;;;2.75;1.00;;;8.50;99.90;;;;;;5020918;23;20269;-93
2023/12/30 05:01:43;;;;;;;3.70;0.68;;;8.50;99.90;;;;;;5021016;23;20620;-92
2023/12/30 05:03:44;;;;;;;6.10;1.15;;;8.40;99.90;;;;;;5045167;23;20616;-96
2023/12/30 05:05:45;;;;;;;3.78;0.45;;;8.40;99.90;;;;;;4997368;23;20254;-96
2023/12/30 05:07:46;;;;;;;7.22;0.47;;;8.40;99.90;;;;;;4997666;23;20516;-94
2023/12/30 05:09:47;;;;;;;8.75;1.67;;;8.40;99.90;;;;;;5020814;23;20574;-94
2023/12/30 05:11:49;;;;;;;2.97;0.43;;;8.40;99.90;;;;;;5020880;23;20644;-94
2023/12/30 05:13:50;;;;;;;6.07;0.73;;;8.50;99.90;;;;;;4997318;23;20156;-92
2023/12/30 05:15:51;;;;;;;2.47;0.95;;;8.50;99.90;;;;;;5020632;23;20234;-93
2023/12/30 05:17:53;;;;;;;6.32;1.77;;;8.40;99.90;;;;;;4997361;23;20163;-93
2023/12/30 05:19:54;;;;;;;4.00;1.10;;;8.40;99.90;;;;;;5020619;23;20162;-93
2023/12/30 05:21:55;;;;;;;4.43;1.58;;;8.50;99.90;;;;;;4997412;23;20479;-96
2023/12/30 05:23:56;;;;;;;5.93;1.02;;;8.50;99.90;;;;;;4997475;23;20156;-93
2023/12/30 05:25:57;;;;;;;4.40;0.80;;;8.50;99.90;;;;;;5021181;23;20181;-94
2023/12/30 05:27:57;;;;;;;4.53;1.00;;;8.50;99.90;;;;;;4997334;23;20151;-94
2023/12/30 05:29:58;;;;;;;0.70;0.60;;;8.40;99.90;;;;;;5020831;23;20155;-95
2023/12/30 05:31:59;;;;;;;6.05;0.98;;;8.40;99.90;;;;;;5021078;23;20170;-95
2023/12/30 05:34:00;;;;;;;9.27;1.35;;;8.40;99.90;;;;;;4946486;23;1245482;-94
2023/12/30 05:36:01;;;;;;;5.72;1.20;;;8.50;99.90;;;;;;5021832;23;20183;-93
2023/12/30 05:38:03;;;;;;;2.70;0.55;;;8.50;99.90;;;;;;5022556;23;20225;-95
2023/12/30 05:40:07;;;;;;;7.80;1.40;;;8.60;99.90;;;;;;4998117;23;20234;-95
2023/12/30 05:42:08;;;;;;;9.27;0.68;;;8.60;99.90;;;;;;4998232;23;20158;-94
2023/12/30 05:44:09;;;;;;;7.03;1.00;;;8.60;99.90;;;;;;5022199;23;20158;-93
2023/12/30 05:46:17;;;;;;;1.20;0.60;;;8.60;99.90;;;;;;5022016;23;20262;-93
2023/12/30 05:48:17;;;;;;;3.70;2.08;;;8.50;99.90;;;;;;5022124;23;20494;-94
2023/12/30 05:50:18;;;;;;;4.35;1.13;;;8.60;99.90;;;;;;4998557;23;20155;-94
2023/12/30 05:52:19;;;;;;;0.43;0.35;;;8.50;99.90;;;;;;5022161;23;20151;-94
2023/12/30 05:54:20;;;;;;;5.55;1.70;;;8.50;99.90;;;;;;4998592;23;20215;-95
2023/12/30 05:56:26;;;;;;;1.80;0.57;;;8.30;99.90;;;;;;4998447;23;20199;-94
2023/12/30 05:58:28;;;;;;;1.60;0.52;;;8.30;99.90;;;;;;5022414;23;20285;-94
2023/12/30 06:00:29;;;;;;;14.48;3.03;;;8.40;99.90;;;;;;4998352;23;20186;-92
2023/12/30 06:02:30;;;;;;;7.30;0.90;;;8.40;99.90;;;;;;5022402;23;20503;-94
2023/12/30 06:04:31;;;;;;;6.93;0.80;;;8.40;99.90;;;;;;5022680;23;20155;-95
2023/12/30 06:06:32;;;;;;;9.13;1.50;;;8.60;99.90;;;;;;5022787;23;20254;-95
2023/12/30 06:08:33;;;;;;;14.55;1.38;;;8.50;99.90;;;;;;5022167;23;20187;-94
2023/12/30 06:10:34;;;;;;;3.90;1.50;;;8.60;99.90;;;;;;4998414;23;20179;-93
2023/12/30 06:12:34;;;;;;;4.13;1.10;;;8.50;99.90;;;;;;5021688;23;20163;-96
2023/12/30 06:14:36;;;;;;;10.80;1.33;;;8.60;99.90;;;;;;4998127;23;20216;-95
2023/12/30 06:16:37;;;;;;;2.45;0.73;;;8.60;99.90;;;;;;4997989;23;20200;-95
2023/12/30 06:18:38;;;;;;;4.03;0.77;;;8.50;99.90;;;;;;5021776;23;20234;-94
2023/12/30 06:20:39;;;;;;;14.85;1.10;;;8.50;99.90;;;;;;5021897;23;20162;-94
2023/12/30 06:22:39;;;;;;;3.58;1.25;;;8.50;99.90;;;;;;4998117;23;20152;-93
2023/12/30 06:24:40;;;;;;;9.15;1.90;;;8.50;99.90;;;;;;5022057;23;20165;-94
2023/12/30 06:26:42;;;;;;;1.27;0.75;;;8.40;99.90;;;;;;4998039;23;20271;-96
2023/12/30 06:28:43;;;;;;;8.70;1.27;;;8.50;99.90;;;;;;4997984;23;20163;-95
2023/12/30 06:30:43;;;;;;;6.28;2.28;;;8.40;99.90;;;;;;4998151;23;20151;-94
2023/12/30 06:32:44;;;;;;;6.18;1.55;;;8.50;99.90;;;;;;4997487;23;20163;-95
2023/12/30 06:34:45;;;;;;;5.30;1.13;;;8.50;99.90;;;;;;5021810;23;20159;-95
2023/12/30 06:36:47;;;;;;;9.77;0.50;;;8.50;99.90;;;;;;4997594;23;20199;-94
2023/12/30 06:38:48;;;;;;;6.13;1.45;;;8.40;99.90;;;;;;4997847;23;20257;-94
2023/12/30 06:40:49;;;;;;;6.25;1.67;;;8.40;99.90;;;;;;5021837;23;20159;-95
2023/12/30 06:42:50;;;;;;;1.50;0.77;;;8.40;99.90;;;;;;4998011;23;20158;-94
2023/12/30 06:44:51;;;;;;;5.30;1.20;;;8.40;99.90;;;;;;5021517;23;20165;-94
2023/12/30 06:46:52;;;;;;;1.10;0.47;;;8.50;99.90;;;;;;5021731;23;20178;-93
2023/12/30 06:48:53;;;;;;;5.03;1.00;;;8.50;99.90;;;;;;5021769;23;20147;-94
2023/12/30 06:50:56;;;;;;;3.05;1.30;;;8.50;99.90;;;;;;4997654;23;20473;-93
2023/12/30 06:52:58;;;;;;;2.25;1.00;;;8.40;99.90;;;;;;4997745;23;20159;-94
2023/12/30 06:54:59;;;;;;;5.70;1.35;;;8.40;99.90;;;;;;4997816;23;20155;-94
2023/12/30 06:57:00;;;;;;;6.50;0.88;;;8.50;99.90;;;;;;5021603;23;20191;-93
2023/12/30 06:59:01;;;;;;;6.50;1.17;;;8.50;99.90;;;;;;5021921;23;20272;-95
2023/12/30 07:01:02;;;;;;;5.20;1.63;;;8.50;99.90;;;;;;4997661;23;20152;-94
2023/12/30 07:03:03;;;;;;;1.38;0.60;;;8.50;99.90;;;;;;5021320;23;20464;-94
2023/12/30 07:05:05;;;;;;;6.30;1.33;;;8.40;99.90;;;;;;5021590;23;20157;-93
2023/12/30 07:07:05;;;;;;;17.75;2.58;;;8.30;99.90;;;;;;4997629;23;20195;-94
2023/12/30 07:09:07;;;;;;;6.78;1.92;;;8.20;99.90;;;;;;5021424;23;20222;-94
2023/12/30 07:11:07;;;;;;;3.03;1.00;;;8.20;99.90;;;;;;5021816;23;20487;-94
2023/12/30 07:13:08;;;;;;;0.82;0.50;;;8.10;99.90;;;;;;5021488;23;20150;-93
2023/12/30 07:15:09;;;;;;;5.50;1.48;;;8.10;99.90;;;;;;4997600;23;20159;-94
2023/12/30 07:17:10;;;;;;;2.25;0.70;;;8.10;99.90;;;;;;4997697;23;20272;-95
2023/12/30 07:19:11;;;;;;;3.63;0.90;;;8.10;99.90;;;;;;5021950;23;20154;-95
2023/12/30 07:21:12;;;;;;;2.00;0.85;;;8.00;99.90;;;;;;5021404;23;20155;-94
2023/12/30 07:23:13;;;;;;;5.45;1.73;;;8.00;99.90;;;;;;5022907;23;20162;-93
2023/12/30 07:25:14;;;;;;;4.32;0.93;;;8.00;99.90;;;;;;4999103;23;20163;-93
2023/12/30 07:27:15;;;;;;;6.78;0.88;;;7.90;99.90;;;;;;5022207;23;20174;-93
2023/12/30 07:29:16;;;;;;;2.92;0.90;;;7.90;99.90;;;;;;5021327;23;20239;-95
2023/12/30 07:31:16;;;;;;;9.18;0.60;;;8.10;99.90;;;;;;4997763;23;20147;-93
2023/12/30 07:33:17;;;;;;;5.18;1.67;;;8.00;99.90;;;;;;5021448;23;20179;-94
2023/12/30 07:35:18;;;;;;;5.30;1.25;;;7.90;99.90;;;;;;5021452;23;20158;-95
2023/12/30 07:37:19;;;;;;;2.67;1.02;;;7.90;99.90;;;;;;4997546;23;20192;-94
2023/12/30 07:39:21;;;;;;;12.02;1.33;;;7.90;99.90;;;;;;4997856;23;20609;-94
2023/12/30 07:41:22;;;;;;;8.40;0.93;;;8.00;99.90;;;;;;4997299;23;20263;-94
2023/12/30 07:43:24;;;;;;;4.78;1.40;;;8.00;99.90;;;;;;5021857;23;20155;-94
2023/12/30 07:45:25;;;;;;;8.25;1.60;;;7.90;99.90;;;;;;5023091;23;20155;-93
2023/12/30 07:47:26;;;;;;;9.50;1.70;;;7.90;99.90;;;;;;4999257;23;20155;-93
2023/12/30 07:49:26;;;;;;;0.67;0.43;;;7.90;99.90;;;;;;5022941;23;20223;-94
2023/12/30 07:51:27;;;;;;;11.68;1.67;;;8.00;99.90;;;;;;4999172;23;20286;-95
2023/12/30 07:53:28;;;;;;;5.47;1.73;;;8.10;99.90;;;;;;5022963;23;20237;-94
2023/12/30 07:55:29;;;;;;;2.53;1.05;;;8.20;99.90;;;;;;4998548;23;20579;-92
2023/12/30 07:57:30;;;;;;;3.35;1.60;;;8.10;99.90;;;;;;4998726;23;20254;-94
2023/12/30 07:59:30;;;;;;;7.97;1.30;;;8.00;99.90;;;;;;5022903;23;20151;-93
2023/12/30 08:01:31;;;;;;;8.27;1.23;;;8.00;99.90;;;;;;5022902;23;20159;-93
2023/12/30 08:03:32;;;;;;;5.90;0.83;;;8.00;99.90;;;;;;5022788;23;20250;-95
2023/12/30 08:05:33;;;;;;;8.60;1.67;;;8.10;99.90;;;;;;5022652;23;20167;-94
2023/12/30 08:07:34;;;;;;;14.60;2.47;;;8.20;99.90;;;;;;5022899;23;20188;-94
2023/12/30 08:09:37;;;;;;;7.30;1.98;;;8.30;99.90;;;;;;4998926;23;20151;-94
2023/12/30 08:11:38;;;;;;;5.10;0.75;;;8.20;99.90;;;;;;5022543;23;20159;-95
2023/12/30 08:13:39;;;;;;;2.15;0.80;;;8.20;99.90;;;;;;4999047;23;20158;-93
2023/12/30 08:15:39;;;;;;;4.15;1.23;;;8.10;99.90;;;;;;4998903;23;20162;-95
2023/12/30 08:17:41;;;;;;;4.17;0.77;;;8.10;99.90;;;;;;5022547;23;20281;-93
2023/12/30 08:19:41;;;;;;;17.15;3.10;;;8.00;99.90;;;;;;4998992;23;20239;-94
2023/12/30 08:21:42;;;;;;;5.77;1.17;;;7.90;99.90;;;;;;4998733;23;20191;-94
2023/12/30 08:23:43;;;;;;;3.50;1.13;;;7.90;99.90;;;;;;5022904;23;20155;-95
2023/12/30 08:25:44;;;;;;;8.63;1.60;;;7.90;99.90;;;;;;4999167;23;20320;-94
2023/12/30 08:27:45;;;;;;;12.50;2.53;;;7.90;99.90;;;;;;5022817;23;20159;-94
2023/12/30 08:29:46;;;;;;;11.30;1.67;;;7.90;99.90;;;;;;4998920;23;20163;-94
2023/12/30 08:31:46;;;;;;;1.75;0.57;;;7.90;99.90;;;;;;4998691;23;20159;-95
2023/12/30 08:33:48;;;;;;;6.90;0.95;;;7.90;99.90;;;;;;4998986;23;20163;-93
2023/12/30 08:35:49;;;;;;;3.33;0.98;;;7.90;99.90;;;;;;5023526;23;20214;-95
2023/12/30 08:37:50;;;;;;;4.18;0.85;;;7.90;99.90;;;;;;5022825;23;20198;-95
2023/12/30 08:39:50;;;;;;;5.10;0.93;;;7.90;99.90;;;;;;4999082;23;20155;-94
2023/12/30 08:41:52;;;;;;;8.27;1.60;;;8.00;99.90;;;;;;4998964;23;20159;-95
2023/12/30 08:43:53;;;;;;;5.13;1.52;;;7.90;99.90;;;;;;5022708;23;20154;-94
2023/12/30 08:45:54;;;;;;;3.35;1.30;;;7.90;99.90;;;;;;5022528;23;20179;-94
2023/12/30 08:47:54;;;;;;;2.15;0.57;;;7.90;99.90;;;;;;4998584;23;20163;-94
2023/12/30 08:49:55;;;;;;;5.25;0.80;;;8.00;99.90;;;;;;5022654;23;20151;-92
2023/12/30 08:51:56;;;;;;;8.03;0.97;;;8.00;99.90;;;;;;5022485;23;20229;-96
2023/12/30 08:53:57;;;;;;;9.27;2.05;;;8.00;99.90;;;;;;5022690;23;20151;-93
2023/12/30 08:55:58;;;;;;;4.18;1.13;;;8.00;99.90;;;;;;5022045;23;20718;-95
2023/12/30 08:57:59;;;;;;;6.53;1.50;;;8.00;99.90;;;;;;5022731;23;20235;-94
2023/12/30 09:00:00;;;;;;;3.70;1.40;;;8.10;99.90;;;;;;4998263;23;20182;-95
2023/12/30 09:02:01;;;;;;;2.92;1.35;;;8.10;99.90;;;;;;5022290;23;20151;-94
2023/12/30 09:04:01;;;;;;;4.60;1.10;;;8.10;99.90;;;;;;5022204;23;20158;-92
2023/12/30 09:06:03;;;;;;;9.73;1.05;;;8.10;99.90;;;;;;5022447;23;20237;-94
2023/12/30 09:08:04;;;;;;;2.13;1.35;;;8.10;99.90;;;;;;5022357;23;20464;-94
2023/12/30 09:10:06;;;;;;;4.65;1.27;;;8.10;99.90;;;;;;5021882;23;20158;-93
2023/12/30 09:12:08;;;;;;;6.28;0.88;;;8.10;99.90;;;;;;4998250;23;20151;-93
2023/12/30 09:14:09;;;;;;;7.57;0.88;;;8.20;99.90;;;;;;5022147;23;20238;-93
2023/12/30 09:16:09;;;;;;;9.80;1.10;;;8.30;99.90;;;;;;4998678;23;20547;-94
2023/12/30 09:18:10;;;;;;;4.53;1.10;;;8.30;99.90;;;;;;5022681;23;20166;-94
2023/12/30 09:20:11;;;;;;;3.65;0.80;;;8.30;99.90;;;;;;5022399;23;20274;-93
2023/12/30 09:22:12;;;;;;;4.53;0.60;;;8.40;99.90;;;;;;5022483;23;20155;-95
2023/12/30 09:24:13;;;;;;;9.27;0.73;;;8.40;99.90;;;;;;4998513;23;20239;-93
2023/12/30 09:26:16;;;;;;;2.13;1.25;;;8.40;99.90;;;;;;5022007;23;20178;-94
2023/12/30 09:28:17;;;;;;;10.00;1.58;;;8.40;99.90;;;;;;4998439;23;20174;-95
2023/12/30 09:30:17;;;;;;;2.78;0.70;;;8.50;99.90;;;;;;5022151;23;20154;-95
2023/12/30 09:32:18;;;;;;;2.15;0.47;;;8.60;99.90;;;;;;4998211;23;20148;-94
2023/12/30 09:34:19;;;;;;;2.53;0.85;;;8.60;99.90;;;;;;5022208;23;20201;-94
2023/12/30 09:36:20;;;;;;;9.07;0.60;;;8.50;99.90;;;;;;5022008;23;20179;-93
2023/12/30 09:38:26;;;;;;;6.47;1.10;;;8.50;99.90;;;;;;4998673;23;20156;-94
2023/12/30 09:40:27;;;;;;;9.30;1.00;;;8.50;99.90;;;;;;5022742;23;20154;-94
2023/12/30 09:42:28;;;;;;;3.47;1.23;;;8.50;99.90;;;;;;4998420;23;20164;-94
2023/12/30 09:44:29;;;;;;;0.85;0.38;;;8.50;99.90;;;;;;5021827;23;20150;-95
2023/12/30 09:46:31;;;;;;;3.60;0.52;;;8.50;99.90;;;;;;5021906;23;20175;-93
2023/12/30 09:48:34;;;;;;;12.90;0.35;;;8.50;99.90;;;;;;5021931;23;20155;-93
2023/12/30 09:50:35;;;;;;;14.48;1.23;;;8.50;99.90;;;;;;5022045;23;20154;-93
2023/12/30 09:52:36;;;;;;;1.58;0.98;;;8.50;99.90;;;;;;5021785;23;20602;-95
2023/12/30 09:54:39;;;;;;;1.35;0.90;;;8.40;99.90;;;;;;4998197;23;20487;-94
2023/12/30 09:56:41;;;;;;;2.67;0.65;;;8.40;99.90;;;;;;5021747;23;20190;-95
2023/12/30 09:58:44;;;;;;;0.63;0.30;;;8.40;99.90;;;;;;5022217;23;20166;-95
2023/12/30 10:00:45;;;;;;;5.07;1.75;;;8.40;99.90;;;;;;5021924;23;20158;-95
2023/12/30 10:02:46;;;;;;;5.65;1.33;;;8.40;99.90;;;;;;5021466;23;20159;-94
2023/12/30 10:04:49;;;;;;;2.67;0.80;;;8.30;99.90;;;;;;4997915;23;20230;-93
2023/12/30 10:06:51;;;;;;;4.63;0.98;;;8.40;99.90;;;;;;5021371;23;20203;-94
2023/12/30 10:08:52;;;;;;;11.90;1.15;;;8.50;99.90;;;;;;5021987;23;20202;-92
2023/12/30 10:10:54;;;;;;;6.20;1.00;;;8.50;99.90;;;;;;5022192;23;20159;-93
2023/12/30 10:12:54;;;;;;;2.90;0.73;;;8.70;99.90;;;;;;5022061;23;20151;-94
2023/12/30 10:14:55;;;;;;;3.40;1.13;;;8.80;99.90;;;;;;4998346;23;20152;-94
2023/12/30 10:16:56;;;;;;;0.70;0.70;;;8.80;99.90;;;;;;5021609;23;20186;-93
2023/12/30 10:18:57;;;;;;;6.53;0.63;;;8.90;99.90;;;;;;4998155;23;20163;-93
2023/12/30 10:20:58;;;;;;;10.73;1.00;;;8.90;99.90;;;;;;4998721;23;20156;-94
2023/12/30 10:23:00;;;;;;;5.03;1.48;;;9.10;99.90;;;;;;4998263;23;20202;-94
2023/12/30 10:25:01;;;;;;;8.90;1.65;;;9.30;99.90;;;;;;5021587;23;20475;-93
2023/12/30 10:27:04;;;;;;;0.98;0.73;;;9.30;99.90;;;;;;4998074;23;20199;-94
2023/12/30 10:29:10;;;;;;;12.52;1.65;;;9.40;99.90;;;;;;5021772;23;20637;-94
2023/12/30 10:31:11;;;;;;;5.43;0.45;;;9.50;99.90;;;;;;5021689;23;20158;-94
2023/12/30 10:33:13;;;;;;;2.67;0.40;;;9.60;99.90;;;;;;5021636;23;20171;-94
2023/12/30 10:35:15;;;;;;;8.63;1.55;;;9.60;99.90;;;;;;5021108;23;20155;-95
2023/12/30 10:37:16;;;;;;;6.43;1.17;;;9.60;99.90;;;;;;5021030;23;20194;-94